sensor_id;sensor_type;location;lat;lon;timestamp;temperature;humidity
40848;DHT22;26570;50.962;5.340;2023-03-01T01:01:31;-0.40;99.90
40848;DHT22;26570;50.962;5.340;2023-03-01T01:04:17;-0.30;99.90
40848;DHT22;26570;50.962;5.340;2023-03-01T01:07:03;-0.40;99.90
40848;DHT22;26570;50.962;5.340;2023-03-01T01:09:47;-0.40;99.90
40848;DHT22;26570;50.962;5.340;2023-03-01T01:12:33;-0.40;99.90
40848;DHT22;26570;50.962;5.340;2023-03-01T01:15:41;-0.60;99.90
40848;DHT22;26570;50.962;5.340;2023-03-01T01:18:27;-0.50;99.90
40848;DHT22;26570;50.962;5.340;2023-03-01T01:21:15;-0.60;99.90
40848;DHT22;26570;50.962;5.340;2023-03-01T01:24:03;-0.60;99.90
40848;DHT22;26570;50.962;5.340;2023-03-01T01:26:49;-0.60;99.90
40848;DHT22;26570;50.962;5.340;2023-03-01T01:29:35;-0.60;99.90
40848;DHT22;26570;50.962;5.340;2023-03-01T01:32:23;-0.40;99.90
40848;DHT22;26570;50.962;5.340;2023-03-01T01:35:09;-0.50;99.90
40848;DHT22;26570;50.962;5.340;2023-03-01T01:37:55;-0.50;99.90
40848;DHT22;26570;50.962;5.340;2023-03-01T01:40:48;-0.60;99.90
40848;DHT22;26570;50.962;5.340;2023-03-01T01:43:42;-0.60;99.90
40848;DHT22;26570;50.962;5.340;2023-03-01T01:46:40;-0.70;99.90
40848;DHT22;26570;50.962;5.340;2023-03-01T01:49:47;-0.70;99.90
40848;DHT22;26570;50.962;5.340;2023-03-01T01:52:37;-0.60;99.90
40848;DHT22;26570;50.962;5.340;2023-03-01T01:55:25;-0.80;99.90
40848;DHT22;26570;50.962;5.340;2023-03-01T01:58:15;-0.80;99.90
40848;DHT22;26570;50.962;5.340;2023-03-01T02:01:03;-0.90;99.90
40848;DHT22;26570;50.962;5.340;2023-03-01T02:04:12;-0.90;99.90
40848;DHT22;26570;50.962;5.340;2023-03-01T02:07:02;-0.90;99.90
40848;DHT22;26570;50.962;5.340;2023-03-01T02:09:50;-1.00;99.90
40848;DHT22;26570;50.962;5.340;2023-03-01T02:12:38;-0.90;99.90
40848;DHT22;26570;50.962;5.340;2023-03-01T02:15:24;-0.90;99.90
40848;DHT22;26570;50.962;5.340;2023-03-01T02:18:14;-1.00;99.90
40848;DHT22;26570;50.962;5.340;2023-03-01T02:21:27;-1.00;99.90
40848;DHT22;26570;50.962;5.340;2023-03-01T02:30:56;0.20;99.90
40848;DHT22;26570;50.962;5.340;2023-03-01T02:34:03;-0.90;99.90
40848;DHT22;26570;50.962;5.340;2023-03-01T02:37:11;-1.00;99.90
40848;DHT22;26570;50.962;5.340;2023-03-01T02:40:07;-0.90;99.90
40848;DHT22;26570;50.962;5.340;2023-03-01T02:42:58;-1.10;99.90
40848;DHT22;26570;50.962;5.340;2023-03-01T02:45:51;-1.20;99.90
40848;DHT22;26570;50.962;5.340;2023-03-01T02:48:58;-1.20;99.90
40848;DHT22;26570;50.962;5.340;2023-03-01T02:55:09;-1.20;99.90
40848;DHT22;26570;50.962;5.340;2023-03-01T02:57:56;-1.10;99.90
40848;DHT22;26570;50.962;5.340;2023-03-01T03:00:42;-1.10;99.90
40848;DHT22;26570;50.962;5.340;2023-03-01T03:03:34;-1.10;99.90
40848;DHT22;26570;50.962;5.340;2023-03-01T03:06:19;-1.30;99.90
40848;DHT22;26570;50.962;5.340;2023-03-01T03:09:05;-1.30;99.90
40848;DHT22;26570;50.962;5.340;2023-03-01T03:11:50;-1.80;99.90
40848;DHT22;26570;50.962;5.340;2023-03-01T03:14:36;-1.30;99.90
40848;DHT22;26570;50.962;5.340;2023-03-01T03:17:21;-1.40;99.90
40848;DHT22;26570;50.962;5.340;2023-03-01T03:20:09;-1.50;99.90
40848;DHT22;26570;50.962;5.340;2023-03-01T03:22:57;-1.60;99.90
40848;DHT22;26570;50.962;5.340;2023-03-01T03:25:43;-1.50;99.90
40848;DHT22;26570;50.962;5.340;2023-03-01T03:28:28;-1.50;99.90
40848;DHT22;26570;50.962;5.340;2023-03-01T03:31:15;-1.40;99.90
40848;DHT22;26570;50.962;5.340;2023-03-01T03:34:00;-1.30;99.90
40848;DHT22;26570;50.962;5.340;2023-03-01T03:36:46;-1.40;99.90
40848;DHT22;26570;50.962;5.340;2023-03-01T03:39:32;-1.40;99.90
40848;DHT22;26570;50.962;5.340;2023-03-01T03:42:21;-1.30;99.90
40848;DHT22;26570;50.962;5.340;2023-03-01T03:45:08;-1.30;99.90
40848;DHT22;26570;50.962;5.340;2023-03-01T03:47:53;-1.30;99.90
40848;DHT22;26570;50.962;5.340;2023-03-01T03:50:40;-1.40;99.90
40848;DHT22;26570;50.962;5.340;2023-03-01T03:53:48;-1.80;99.90
40848;DHT22;26570;50.962;5.340;2023-03-01T03:56:34;-1.40;99.90
40848;DHT22;26570;50.962;5.340;2023-03-01T03:59:19;-1.30;99.90
40848;DHT22;26570;50.962;5.340;2023-03-01T04:02:04;-1.40;99.90
40848;DHT22;26570;50.962;5.340;2023-03-01T04:04:53;-1.50;99.90
40848;DHT22;26570;50.962;5.340;2023-03-01T04:07:38;-1.40;99.90
40848;DHT22;26570;50.962;5.340;2023-03-01T04:10:24;-1.50;99.90
40848;DHT22;26570;50.962;5.340;2023-03-01T04:13:32;-1.50;99.90
40848;DHT22;26570;50.962;5.340;2023-03-01T04:16:17;-1.60;99.90
40848;DHT22;26570;50.962;5.340;2023-03-01T04:19:03;-1.60;99.90
40848;DHT22;26570;50.962;5.340;2023-03-01T04:21:50;-1.60;99.90
40848;DHT22;26570;50.962;5.340;2023-03-01T04:24:58;-1.60;99.90
40848;DHT22;26570;50.962;5.340;2023-03-01T04:27:51;-1.60;99.90
40848;DHT22;26570;50.962;5.340;2023-03-01T04:30:39;-1.70;99.90
40848;DHT22;26570;50.962;5.340;2023-03-01T04:33:25;-1.70;99.90
40848;DHT22;26570;50.962;5.340;2023-03-01T04:36:12;-1.70;99.90
40848;DHT22;26570;50.962;5.340;2023-03-01T04:38:58;-1.70;99.90
40848;DHT22;26570;50.962;5.340;2023-03-01T04:41:44;-1.70;99.90
40848;DHT22;26570;50.962;5.340;2023-03-01T04:44:29;-1.70;99.90
40848;DHT22;26570;50.962;5.340;2023-03-01T04:47:15;-1.70;99.90
40848;DHT22;26570;50.962;5.340;2023-03-01T04:50:28;-1.70;99.90
40848;DHT22;26570;50.962;5.340;2023-03-01T04:53:13;-1.70;99.90
40848;DHT22;26570;50.962;5.340;2023-03-01T04:55:59;-1.80;99.90
40848;DHT22;26570;50.962;5.340;2023-03-01T04:58:44;-1.80;99.90
40848;DHT22;26570;50.962;5.340;2023-03-01T05:01:29;-1.80;99.90
40848;DHT22;26570;50.962;5.340;2023-03-01T05:04:15;-2.00;99.90
40848;DHT22;26570;50.962;5.340;2023-03-01T05:07:00;-1.90;99.90
40848;DHT22;26570;50.962;5.340;2023-03-01T05:09:48;-1.90;99.90
40848;DHT22;26570;50.962;5.340;2023-03-01T05:12:34;-1.90;99.90
40848;DHT22;26570;50.962;5.340;2023-03-01T05:15:22;-2.00;99.90
40848;DHT22;26570;50.962;5.340;2023-03-01T05:18:10;-1.90;99.90
40848;DHT22;26570;50.962;5.340;2023-03-01T05:21:03;-2.00;99.90
40848;DHT22;26570;50.962;5.340;2023-03-01T05:23:52;-2.00;99.90
40848;DHT22;26570;50.962;5.340;2023-03-01T05:27:02;-1.90;99.90
40848;DHT22;26570;50.962;5.340;2023-03-01T05:29:47;-1.90;99.90
40848;DHT22;26570;50.962;5.340;2023-03-01T05:32:33;-2.00;99.90
40848;DHT22;26570;50.962;5.340;2023-03-01T05:35:18;-2.00;99.90
40848;DHT22;26570;50.962;5.340;2023-03-01T05:38:04;-2.10;99.90
40848;DHT22;26570;50.962;5.340;2023-03-01T05:40:49;-0.80;99.90
40848;DHT22;26570;50.962;5.340;2023-03-01T05:43:35;-2.10;99.90
40848;DHT22;26570;50.962;5.340;2023-03-01T05:46:20;-2.20;99.90
40848;DHT22;26570;50.962;5.340;2023-03-01T05:49:05;-2.30;99.90
40848;DHT22;26570;50.962;5.340;2023-03-01T05:51:52;-2.20;99.90
40848;DHT22;26570;50.962;5.340;2023-03-01T05:54:37;-2.30;99.90
40848;DHT22;26570;50.962;5.340;2023-03-01T05:57:23;-2.10;99.90
40848;DHT22;26570;50.962;5.340;2023-03-01T06:00:19;-2.20;99.90
40848;DHT22;26570;50.962;5.340;2023-03-01T06:03:04;-2.30;99.90
40848;DHT22;26570;50.962;5.340;2023-03-01T06:05:49;-2.10;99.90
40848;DHT22;26570;50.962;5.340;2023-03-01T06:08:35;-2.00;99.90
40848;DHT22;26570;50.962;5.340;2023-03-01T06:11:21;-2.10;99.90
40848;DHT22;26570;50.962;5.340;2023-03-01T06:14:08;-2.20;99.90
40848;DHT22;26570;50.962;5.340;2023-03-01T06:17:00;-1.20;99.90
40848;DHT22;26570;50.962;5.340;2023-03-01T06:19:47;-2.20;99.90
40848;DHT22;26570;50.962;5.340;2023-03-01T06:22:38;-1.90;99.90
40848;DHT22;26570;50.962;5.340;2023-03-01T06:25:25;-1.90;99.90
40848;DHT22;26570;50.962;5.340;2023-03-01T06:28:12;-2.20;99.90
40848;DHT22;26570;50.962;5.340;2023-03-01T06:30:57;-0.80;99.90
40848;DHT22;26570;50.962;5.340;2023-03-01T06:33:42;-2.60;99.90
40848;DHT22;26570;50.962;5.340;2023-03-01T06:36:29;-2.60;99.90
40848;DHT22;26570;50.962;5.340;2023-03-01T06:39:14;-2.60;99.90
40848;DHT22;26570;50.962;5.340;2023-03-01T06:42:24;-2.60;99.90
40848;DHT22;26570;50.962;5.340;2023-03-01T06:45:11;-2.50;99.90
40848;DHT22;26570;50.962;5.340;2023-03-01T06:48:06;-2.60;99.90
40848;DHT22;26570;50.962;5.340;2023-03-01T06:50:57;-2.50;99.90
40848;DHT22;26570;50.962;5.340;2023-03-01T06:53:42;-2.50;99.90
40848;DHT22;26570;50.962;5.340;2023-03-01T06:56:28;-2.30;99.90
40848;DHT22;26570;50.962;5.340;2023-03-01T06:59:14;-2.40;99.90
40848;DHT22;26570;50.962;5.340;2023-03-01T07:01:59;-2.30;99.90
40848;DHT22;26570;50.962;5.340;2023-03-01T07:04:44;-2.20;99.90
40848;DHT22;26570;50.962;5.340;2023-03-01T07:07:30;-2.10;99.90
40848;DHT22;26570;50.962;5.340;2023-03-01T07:10:15;-2.00;99.90
40848;DHT22;26570;50.962;5.340;2023-03-01T07:13:01;-1.70;99.90
40848;DHT22;26570;50.962;5.340;2023-03-01T07:15:46;-1.30;99.90
40848;DHT22;26570;50.962;5.340;2023-03-01T07:18:31;-0.70;99.90
40848;DHT22;26570;50.962;5.340;2023-03-01T07:21:16;-0.20;99.90
40848;DHT22;26570;50.962;5.340;2023-03-01T07:24:02;0.10;99.90
40848;DHT22;26570;50.962;5.340;2023-03-01T07:26:50;0.10;99.90
40848;DHT22;26570;50.962;5.340;2023-03-01T07:29:36;0.30;99.90
40848;DHT22;26570;50.962;5.340;2023-03-01T07:32:43;1.00;99.90
40848;DHT22;26570;50.962;5.340;2023-03-01T07:35:29;1.60;99.90
40848;DHT22;26570;50.962;5.340;2023-03-01T07:38:14;1.70;99.90
40848;DHT22;26570;50.962;5.340;2023-03-01T07:41:01;1.90;99.90
40848;DHT22;26570;50.962;5.340;2023-03-01T07:43:46;2.40;99.90
40848;DHT22;26570;50.962;5.340;2023-03-01T07:46:31;2.70;99.90
40848;DHT22;26570;50.962;5.340;2023-03-01T07:49:16;4.50;99.90
40848;DHT22;26570;50.962;5.340;2023-03-01T07:52:01;3.80;99.90
40848;DHT22;26570;50.962;5.340;2023-03-01T07:54:46;4.10;99.90
40848;DHT22;26570;50.962;5.340;2023-03-01T07:57:30;4.50;99.90
40848;DHT22;26570;50.962;5.340;2023-03-01T08:00:19;4.70;99.90
40848;DHT22;26570;50.962;5.340;2023-03-01T08:03:04;4.70;99.90
40848;DHT22;26570;50.962;5.340;2023-03-01T08:05:49;4.40;99.90
40848;DHT22;26570;50.962;5.340;2023-03-01T08:08:35;4.60;99.90
40848;DHT22;26570;50.962;5.340;2023-03-01T08:11:20;5.30;99.90
40848;DHT22;26570;50.962;5.340;2023-03-01T08:14:06;6.20;99.90
40848;DHT22;26570;50.962;5.340;2023-03-01T08:16:51;6.90;99.90
40848;DHT22;26570;50.962;5.340;2023-03-01T08:19:58;7.90;99.90
40848;DHT22;26570;50.962;5.340;2023-03-01T08:22:43;8.10;99.90
40848;DHT22;26570;50.962;5.340;2023-03-01T08:25:28;8.30;99.60
40848;DHT22;26570;50.962;5.340;2023-03-01T08:28:13;8.90;97.90
40848;DHT22;26570;50.962;5.340;2023-03-01T08:30:57;9.20;98.00
40848;DHT22;26570;50.962;5.340;2023-03-01T08:33:43;9.00;97.40
40848;DHT22;26570;50.962;5.340;2023-03-01T08:36:34;8.70;97.70
40848;DHT22;26570;50.962;5.340;2023-03-01T08:39:42;8.90;97.30
40848;DHT22;26570;50.962;5.340;2023-03-01T08:42:27;8.20;98.00
40848;DHT22;26570;50.962;5.340;2023-03-01T08:45:12;8.00;99.00
40848;DHT22;26570;50.962;5.340;2023-03-01T08:48:27;8.30;99.10
40848;DHT22;26570;50.962;5.340;2023-03-01T08:51:16;8.50;98.10
40848;DHT22;26570;50.962;5.340;2023-03-01T08:54:02;8.50;97.40
40848;DHT22;26570;50.962;5.340;2023-03-01T08:56:48;8.10;98.20
40848;DHT22;26570;50.962;5.340;2023-03-01T08:59:34;7.90;99.10
40848;DHT22;26570;50.962;5.340;2023-03-01T09:02:22;7.90;99.60
40848;DHT22;26570;50.962;5.340;2023-03-01T09:05:08;8.00;98.10
40848;DHT22;26570;50.962;5.340;2023-03-01T09:07:53;7.90;98.90
40848;DHT22;26570;50.962;5.340;2023-03-01T09:10:38;7.60;99.30
40848;DHT22;26570;50.962;5.340;2023-03-01T09:13:23;7.50;99.70
40848;DHT22;26570;50.962;5.340;2023-03-01T09:16:11;7.50;99.50
40848;DHT22;26570;50.962;5.340;2023-03-01T09:18:56;7.60;99.60
40848;DHT22;26570;50.962;5.340;2023-03-01T09:21:41;7.50;99.20
40848;DHT22;26570;50.962;5.340;2023-03-01T09:24:36;7.70;99.70
40848;DHT22;26570;50.962;5.340;2023-03-01T09:27:22;8.10;99.20
40848;DHT22;26570;50.962;5.340;2023-03-01T09:30:12;8.30;97.90
40848;DHT22;26570;50.962;5.340;2023-03-01T09:32:58;8.40;98.20
40848;DHT22;26570;50.962;5.340;2023-03-01T09:35:43;8.80;98.10
40848;DHT22;26570;50.962;5.340;2023-03-01T09:38:31;8.30;97.30
40848;DHT22;26570;50.962;5.340;2023-03-01T09:41:37;8.40;98.40
40848;DHT22;26570;50.962;5.340;2023-03-01T09:47:32;8.00;98.00
40848;DHT22;26570;50.962;5.340;2023-03-01T09:50:20;8.50;98.20
40848;DHT22;26570;50.962;5.340;2023-03-01T09:53:32;8.20;97.20
40848;DHT22;26570;50.962;5.340;2023-03-01T09:56:20;8.40;98.30
40848;DHT22;26570;50.962;5.340;2023-03-01T10:09:17;8.20;97.80
40848;DHT22;26570;50.962;5.340;2023-03-01T10:12:18;8.20;99.20
40848;DHT22;26570;50.962;5.340;2023-03-01T10:15:24;8.40;97.90
40848;DHT22;26570;50.962;5.340;2023-03-01T10:18:18;8.30;97.40
40848;DHT22;26570;50.962;5.340;2023-03-01T10:21:28;8.10;99.10
40848;DHT22;26570;50.962;5.340;2023-03-01T10:24:18;7.80;99.50
40848;DHT22;26570;50.962;5.340;2023-03-01T10:27:23;7.60;99.40
40848;DHT22;26570;50.962;5.340;2023-03-01T10:30:35;7.70;99.40
40848;DHT22;26570;50.962;5.340;2023-03-01T10:33:45;7.40;99.80
40848;DHT22;26570;50.962;5.340;2023-03-01T10:36:33;7.40;99.90
40848;DHT22;26570;50.962;5.340;2023-03-01T10:39:21;7.40;99.80
40848;DHT22;26570;50.962;5.340;2023-03-01T10:42:20;7.20;99.90
40848;DHT22;26570;50.962;5.340;2023-03-01T10:45:31;7.40;99.90
40848;DHT22;26570;50.962;5.340;2023-03-01T10:48:23;7.50;99.80
40848;DHT22;26570;50.962;5.340;2023-03-01T10:51:17;7.30;99.70
40848;DHT22;26570;50.962;5.340;2023-03-01T10:54:05;7.50;99.10
40848;DHT22;26570;50.962;5.340;2023-03-01T10:57:05;7.40;99.90
40848;DHT22;26570;50.962;5.340;2023-03-01T11:00:22;7.40;99.90
40848;DHT22;26570;50.962;5.340;2023-03-01T11:03:14;7.70;98.60
40848;DHT22;26570;50.962;5.340;2023-03-01T11:06:08;7.60;98.20
40848;DHT22;26570;50.962;5.340;2023-03-01T11:09:14;7.60;97.70
40848;DHT22;26570;50.962;5.340;2023-03-01T11:12:28;7.70;97.50
40848;DHT22;26570;50.962;5.340;2023-03-01T11:15:36;7.70;97.40
40848;DHT22;26570;50.962;5.340;2023-03-01T11:18:22;7.80;97.20
40848;DHT22;26570;50.962;5.340;2023-03-01T11:21:18;7.90;97.00
40848;DHT22;26570;50.962;5.340;2023-03-01T11:24:14;8.00;97.60
40848;DHT22;26570;50.962;5.340;2023-03-01T11:27:04;8.00;98.40
40848;DHT22;26570;50.962;5.340;2023-03-01T11:32:53;8.20;96.10
40848;DHT22;26570;50.962;5.340;2023-03-01T11:35:49;8.30;95.10
40848;DHT22;26570;50.962;5.340;2023-03-01T11:38:39;8.40;95.40
40848;DHT22;26570;50.962;5.340;2023-03-01T11:41:28;8.70;95.70
40848;DHT22;26570;50.962;5.340;2023-03-01T11:44:25;8.70;95.60
40848;DHT22;26570;50.962;5.340;2023-03-01T11:47:25;8.80;94.90
40848;DHT22;26570;50.962;5.340;2023-03-01T11:50:47;8.80;94.60
40848;DHT22;26570;50.962;5.340;2023-03-01T11:54:12;8.90;94.70
40848;DHT22;26570;50.962;5.340;2023-03-01T11:57:37;8.90;94.30
40848;DHT22;26570;50.962;5.340;2023-03-01T12:04:18;9.10;93.30
40848;DHT22;26570;50.962;5.340;2023-03-01T12:10:36;8.90;94.00
40848;DHT22;26570;50.962;5.340;2023-03-01T12:13:55;9.10;93.00
40848;DHT22;26570;50.962;5.340;2023-03-01T12:29:33;9.80;92.70
40848;DHT22;26570;50.962;5.340;2023-03-01T12:32:40;9.80;92.20
40848;DHT22;26570;50.962;5.340;2023-03-01T12:49:10;9.90;92.50
40848;DHT22;26570;50.962;5.340;2023-03-01T12:52:03;9.90;92.90
40848;DHT22;26570;50.962;5.340;2023-03-01T12:54:57;9.90;91.10
40848;DHT22;26570;50.962;5.340;2023-03-01T12:58:11;10.10;92.10
40848;DHT22;26570;50.962;5.340;2023-03-01T13:04:25;9.90;91.90
40848;DHT22;26570;50.962;5.340;2023-03-01T13:07:41;9.90;91.60
40848;DHT22;26570;50.962;5.340;2023-03-01T13:13:28;9.50;91.20
40848;DHT22;26570;50.962;5.340;2023-03-01T13:19:32;9.60;92.00
40848;DHT22;26570;50.962;5.340;2023-03-01T13:22:30;9.40;92.10
40848;DHT22;26570;50.962;5.340;2023-03-01T13:25:20;9.70;90.80
40848;DHT22;26570;50.962;5.340;2023-03-01T13:28:36;9.50;91.40
40848;DHT22;26570;50.962;5.340;2023-03-01T13:34:39;9.90;91.50
40848;DHT22;26570;50.962;5.340;2023-03-01T13:37:36;9.90;91.80
40848;DHT22;26570;50.962;5.340;2023-03-01T13:43:32;9.70;91.30
40848;DHT22;26570;50.962;5.340;2023-03-01T13:46:40;9.40;91.60
40848;DHT22;26570;50.962;5.340;2023-03-01T13:49:34;9.30;91.60
40848;DHT22;26570;50.962;5.340;2023-03-01T13:55:55;9.80;91.80
40848;DHT22;26570;50.962;5.340;2023-03-01T13:59:06;9.60;91.30
40848;DHT22;26570;50.962;5.340;2023-03-01T14:02:00;9.50;91.20
40848;DHT22;26570;50.962;5.340;2023-03-01T14:04:56;9.60;91.00
40848;DHT22;26570;50.962;5.340;2023-03-01T14:07:53;9.80;88.70
40848;DHT22;26570;50.962;5.340;2023-03-01T14:10:59;9.60;88.10
40848;DHT22;26570;50.962;5.340;2023-03-01T14:19:58;9.80;90.80
40848;DHT22;26570;50.962;5.340;2023-03-01T14:22:54;9.90;91.20
40848;DHT22;26570;50.962;5.340;2023-03-01T14:25:54;10.10;91.20
40848;DHT22;26570;50.962;5.340;2023-03-01T14:28:39;10.20;91.00
40848;DHT22;26570;50.962;5.340;2023-03-01T14:31:38;10.00;90.70
40848;DHT22;26570;50.962;5.340;2023-03-01T14:34:24;9.80;91.10
40848;DHT22;26570;50.962;5.340;2023-03-01T14:37:33;9.90;92.00
40848;DHT22;26570;50.962;5.340;2023-03-01T14:40:42;10.00;90.90
40848;DHT22;26570;50.962;5.340;2023-03-01T14:43:29;9.70;91.30
40848;DHT22;26570;50.962;5.340;2023-03-01T14:46:21;9.80;91.10
40848;DHT22;26570;50.962;5.340;2023-03-01T14:49:13;9.90;91.70
40848;DHT22;26570;50.962;5.340;2023-03-01T14:52:02;10.00;90.50
40848;DHT22;26570;50.962;5.340;2023-03-01T14:54:55;10.10;91.30
40848;DHT22;26570;50.962;5.340;2023-03-01T14:57:53;10.10;91.10
40848;DHT22;26570;50.962;5.340;2023-03-01T15:00:57;10.00;91.10
40848;DHT22;26570;50.962;5.340;2023-03-01T15:03:48;10.00;90.60
40848;DHT22;26570;50.962;5.340;2023-03-01T15:06:37;10.00;90.50
40848;DHT22;26570;50.962;5.340;2023-03-01T15:09:25;9.60;90.70
40848;DHT22;26570;50.962;5.340;2023-03-01T15:12:39;9.40;91.50
40848;DHT22;26570;50.962;5.340;2023-03-01T15:18:37;9.80;91.40
40848;DHT22;26570;50.962;5.340;2023-03-01T15:21:49;9.90;91.00
40848;DHT22;26570;50.962;5.340;2023-03-01T15:25:13;9.80;90.50
40848;DHT22;26570;50.962;5.340;2023-03-01T15:28:02;9.80;90.50
40848;DHT22;26570;50.962;5.340;2023-03-01T15:31:29;9.70;90.20
40848;DHT22;26570;50.962;5.340;2023-03-01T15:34:32;9.60;91.20
40848;DHT22;26570;50.962;5.340;2023-03-01T15:40:32;9.40;90.50
40848;DHT22;26570;50.962;5.340;2023-03-01T15:43:44;9.40;91.20
40848;DHT22;26570;50.962;5.340;2023-03-01T15:46:36;9.30;91.10
40848;DHT22;26570;50.962;5.340;2023-03-01T15:52:25;9.40;90.90
40848;DHT22;26570;50.962;5.340;2023-03-01T15:55:22;9.20;90.40
40848;DHT22;26570;50.962;5.340;2023-03-01T15:58:41;9.30;91.00
40848;DHT22;26570;50.962;5.340;2023-03-01T16:01:19;9.30;90.60
40848;DHT22;26570;50.962;5.340;2023-03-01T16:04:04;9.20;91.00
40848;DHT22;26570;50.962;5.340;2023-03-01T16:06:50;9.10;91.60
40848;DHT22;26570;50.962;5.340;2023-03-01T16:09:39;9.10;92.50
40848;DHT22;26570;50.962;5.340;2023-03-01T16:12:27;9.30;91.50
40848;DHT22;26570;50.962;5.340;2023-03-01T16:15:18;9.20;91.10
40848;DHT22;26570;50.962;5.340;2023-03-01T16:18:06;9.10;91.30
40848;DHT22;26570;50.962;5.340;2023-03-01T16:20:56;8.70;91.30
40848;DHT22;26570;50.962;5.340;2023-03-01T16:23:45;8.80;91.20
40848;DHT22;26570;50.962;5.340;2023-03-01T16:26:31;8.70;91.60
40848;DHT22;26570;50.962;5.340;2023-03-01T16:29:16;8.60;92.30
40848;DHT22;26570;50.962;5.340;2023-03-01T16:32:02;8.50;92.50
40848;DHT22;26570;50.962;5.340;2023-03-01T16:34:47;8.50;92.20
40848;DHT22;26570;50.962;5.340;2023-03-01T16:37:35;8.50;92.40
40848;DHT22;26570;50.962;5.340;2023-03-01T16:40:47;8.40;92.20
40848;DHT22;26570;50.962;5.340;2023-03-01T16:43:33;8.30;92.70
40848;DHT22;26570;50.962;5.340;2023-03-01T16:46:24;8.10;93.10
40848;DHT22;26570;50.962;5.340;2023-03-01T16:49:37;8.10;92.90
40848;DHT22;26570;50.962;5.340;2023-03-01T16:52:22;8.20;93.00
40848;DHT22;26570;50.962;5.340;2023-03-01T16:55:08;8.10;93.10
40848;DHT22;26570;50.962;5.340;2023-03-01T16:57:54;7.90;93.50
40848;DHT22;26570;50.962;5.340;2023-03-01T17:00:39;7.80;94.20
40848;DHT22;26570;50.962;5.340;2023-03-01T17:03:26;7.70;94.10
40848;DHT22;26570;50.962;5.340;2023-03-01T17:06:17;7.50;94.70
40848;DHT22;26570;50.962;5.340;2023-03-01T17:09:05;7.40;94.70
40848;DHT22;26570;50.962;5.340;2023-03-01T17:11:51;7.20;95.00
40848;DHT22;26570;50.962;5.340;2023-03-01T17:14:36;7.00;95.50
40848;DHT22;26570;50.962;5.340;2023-03-01T17:17:23;6.90;96.30
40848;DHT22;26570;50.962;5.340;2023-03-01T17:20:08;6.80;96.30
40848;DHT22;26570;50.962;5.340;2023-03-01T17:23:19;6.60;96.50
40848;DHT22;26570;50.962;5.340;2023-03-01T17:26:05;6.40;97.10
40848;DHT22;26570;50.962;5.340;2023-03-01T17:28:50;6.30;97.20
40848;DHT22;26570;50.962;5.340;2023-03-01T17:31:35;6.20;97.50
40848;DHT22;26570;50.962;5.340;2023-03-01T17:34:21;6.30;97.40
40848;DHT22;26570;50.962;5.340;2023-03-01T17:37:06;6.00;97.60
40848;DHT22;26570;50.962;5.340;2023-03-01T17:39:51;5.90;98.10
40848;DHT22;26570;50.962;5.340;2023-03-01T17:42:36;5.90;98.20
40848;DHT22;26570;50.962;5.340;2023-03-01T17:45:22;5.80;98.50
40848;DHT22;26570;50.962;5.340;2023-03-01T17:48:07;5.70;98.90
40848;DHT22;26570;50.962;5.340;2023-03-01T17:50:53;5.70;98.70
40848;DHT22;26570;50.962;5.340;2023-03-01T17:53:38;5.70;98.90
40848;DHT22;26570;50.962;5.340;2023-03-01T17:56:23;5.50;99.30
40848;DHT22;26570;50.962;5.340;2023-03-01T17:59:08;5.50;99.70
40848;DHT22;26570;50.962;5.340;2023-03-01T18:01:53;5.40;99.80
40848;DHT22;26570;50.962;5.340;2023-03-01T18:04:39;5.20;99.90
40848;DHT22;26570;50.962;5.340;2023-03-01T18:07:34;5.10;99.90
40848;DHT22;26570;50.962;5.340;2023-03-01T18:10:19;5.10;99.90
40848;DHT22;26570;50.962;5.340;2023-03-01T18:13:04;5.10;99.90
40848;DHT22;26570;50.962;5.340;2023-03-01T18:16:16;4.90;99.90
40848;DHT22;26570;50.962;5.340;2023-03-01T18:19:04;4.80;99.90
40848;DHT22;26570;50.962;5.340;2023-03-01T18:21:55;4.60;99.90
40848;DHT22;26570;50.962;5.340;2023-03-01T18:24:40;4.50;99.90
40848;DHT22;26570;50.962;5.340;2023-03-01T18:27:28;4.40;99.90
40848;DHT22;26570;50.962;5.340;2023-03-01T18:30:16;4.40;99.90
40848;DHT22;26570;50.962;5.340;2023-03-01T18:33:02;4.40;99.90
40848;DHT22;26570;50.962;5.340;2023-03-01T18:35:47;4.30;99.90
40848;DHT22;26570;50.962;5.340;2023-03-01T18:38:45;4.20;99.90
40848;DHT22;26570;50.962;5.340;2023-03-01T18:41:30;4.20;99.90
40848;DHT22;26570;50.962;5.340;2023-03-01T18:44:19;4.00;99.90
40848;DHT22;26570;50.962;5.340;2023-03-01T18:47:04;4.00;99.90
40848;DHT22;26570;50.962;5.340;2023-03-01T18:50:18;4.00;99.90
40848;DHT22;26570;50.962;5.340;2023-03-01T18:53:04;3.90;99.90
40848;DHT22;26570;50.962;5.340;2023-03-01T18:55:49;3.80;99.90
40848;DHT22;26570;50.962;5.340;2023-03-01T18:58:57;3.80;99.90
40848;DHT22;26570;50.962;5.340;2023-03-01T19:01:43;3.80;99.90
40848;DHT22;26570;50.962;5.340;2023-03-01T19:04:28;3.70;99.90
40848;DHT22;26570;50.962;5.340;2023-03-01T19:07:14;3.60;99.90
40848;DHT22;26570;50.962;5.340;2023-03-01T19:10:00;3.60;99.90
40848;DHT22;26570;50.962;5.340;2023-03-01T19:12:50;3.50;99.90
40848;DHT22;26570;50.962;5.340;2023-03-01T19:16:22;3.50;99.90
40848;DHT22;26570;50.962;5.340;2023-03-01T19:19:11;3.40;99.90
40848;DHT22;26570;50.962;5.340;2023-03-01T19:22:25;3.30;99.90
40848;DHT22;26570;50.962;5.340;2023-03-01T19:25:14;3.20;99.90
40848;DHT22;26570;50.962;5.340;2023-03-01T19:28:21;3.10;99.90
40848;DHT22;26570;50.962;5.340;2023-03-01T19:31:08;3.10;99.90
40848;DHT22;26570;50.962;5.340;2023-03-01T19:33:57;3.00;99.90
40848;DHT22;26570;50.962;5.340;2023-03-01T19:36:45;2.90;99.90
40848;DHT22;26570;50.962;5.340;2023-03-01T19:39:57;2.90;99.90
40848;DHT22;26570;50.962;5.340;2023-03-01T19:42:51;2.80;99.90
40848;DHT22;26570;50.962;5.340;2023-03-01T19:45:56;2.80;99.90
40848;DHT22;26570;50.962;5.340;2023-03-01T19:48:41;2.80;99.90
40848;DHT22;26570;50.962;5.340;2023-03-01T19:51:29;2.60;99.90
40848;DHT22;26570;50.962;5.340;2023-03-01T19:54:14;2.70;99.90
40848;DHT22;26570;50.962;5.340;2023-03-01T19:57:05;2.70;99.90
40848;DHT22;26570;50.962;5.340;2023-03-01T19:59:58;2.60;99.90
40848;DHT22;26570;50.962;5.340;2023-03-01T20:02:45;2.60;99.90
40848;DHT22;26570;50.962;5.340;2023-03-01T20:05:57;2.60;99.90
40848;DHT22;26570;50.962;5.340;2023-03-01T20:09:09;2.50;99.90
40848;DHT22;26570;50.962;5.340;2023-03-01T20:11:57;2.50;99.90
40848;DHT22;26570;50.962;5.340;2023-03-01T20:14:42;2.50;99.90
40848;DHT22;26570;50.962;5.340;2023-03-01T20:17:28;2.60;99.90
40848;DHT22;26570;50.962;5.340;2023-03-01T20:20:14;2.60;99.90
40848;DHT22;26570;50.962;5.340;2023-03-01T20:22:59;2.70;99.90
40848;DHT22;26570;50.962;5.340;2023-03-01T20:25:47;2.80;99.90
40848;DHT22;26570;50.962;5.340;2023-03-01T20:28:35;2.60;99.90
40848;DHT22;26570;50.962;5.340;2023-03-01T20:31:44;1.90;99.90
40848;DHT22;26570;50.962;5.340;2023-03-01T20:34:29;2.60;99.90
40848;DHT22;26570;50.962;5.340;2023-03-01T20:37:14;2.70;99.90
40848;DHT22;26570;50.962;5.340;2023-03-01T20:40:00;2.70;99.90
40848;DHT22;26570;50.962;5.340;2023-03-01T20:42:48;2.70;99.90
40848;DHT22;26570;50.962;5.340;2023-03-01T20:45:33;2.80;99.90
40848;DHT22;26570;50.962;5.340;2023-03-01T20:48:18;2.60;99.90
40848;DHT22;26570;50.962;5.340;2023-03-01T20:51:06;2.70;99.90